Time;durP1;ratioP1;P1;durP2;ratioP2;P2;SDS_P1;SDS_P2;PMS_P1;PMS_P2;Temp;Humidity;BMP_temperature;BMP_pressure;BME280_temperature;BME280_humidity;BME280_pressure;Samples;Min_cycle;Max_cycle;Signal;HPM_P1;HPM_P2
2022/03/21 00:00:57;;;;;;;14.52;7.10;;;3.10;84.00;;;;;;5060583;28;20031;-32
2022/03/21 00:03:24;;;;;;;13.07;7.65;;;2.60;92.30;;;;;;5045238;28;20032;-32
2022/03/21 00:05:51;;;;;;;15.27;8.18;;;2.60;90.60;;;;;;5055085;28;20033;-32
2022/03/21 00:08:18;;;;;;;9.50;7.03;;;2.80;88.70;;;;;;5054386;28;20040;-32
2022/03/21 00:10:45;;;;;;;12.93;8.57;;;2.90;85.50;;;;;;5059245;28;20039;-32
2022/03/21 00:13:15;;;;;;;11.18;6.97;;;2.90;84.00;;;;;;5054523;28;20059;-32
2022/03/21 00:15:43;;;;;;;13.38;8.13;;;2.90;84.30;;;;;;5056460;28;20032;-32
2022/03/21 00:18:09;;;;;;;15.45;6.57;;;3.00;83.40;;;;;;5057961;28;20024;-32
2022/03/21 00:20:34;;;;;;;10.60;6.45;;;3.00;85.80;;;;;;5054540;28;20033;-33
2022/03/21 00:23:01;;;;;;;11.52;6.20;;;2.90;88.30;;;;;;5056747;28;20165;-32
2022/03/21 00:25:27;;;;;;;17.00;8.50;;;2.60;89.60;;;;;;5053522;28;20516;-32
2022/03/21 00:27:53;;;;;;;12.48;6.80;;;2.30;91.40;;;;;;5048329;28;20044;-33
2022/03/21 00:30:19;;;;;;;10.27;6.82;;;2.00;92.60;;;;;;5049078;28;20079;-32
2022/03/21 00:32:46;;;;;;;17.08;7.38;;;2.10;92.00;;;;;;5052830;28;20753;-32
2022/03/21 00:35:14;;;;;;;13.63;6.78;;;2.30;90.80;;;;;;5056350;28;20036;-32
2022/03/21 00:37:40;;;;;;;;;;;2.50;90.30;;;;;;5058116;28;20231;-32
2022/03/21 00:40:07;;;;;;;16.80;7.22;;;2.60;88.90;;;;;;5059201;28;19967;-32
2022/03/21 00:42:37;;;;;;;11.00;6.63;;;2.60;87.40;;;;;;5054576;28;20051;-32
2022/03/21 00:45:09;;;;;;;11.45;6.03;;;2.40;90.10;;;;;;5054262;28;20025;-33
2022/03/21 00:47:35;;;;;;;12.77;6.22;;;2.00;93.00;;;;;;5056964;28;20035;-32
2022/03/21 00:50:03;;;;;;;16.13;7.75;;;1.70;95.20;;;;;;5057794;28;20051;-32
2022/03/21 00:52:29;;;;;;;9.07;6.60;;;1.60;96.80;;;;;;5054096;28;20378;-32
2022/03/21 00:54:55;;;;;;;12.60;6.32;;;1.80;95.00;;;;;;5056778;28;20377;-32
2022/03/21 00:57:20;;;;;;;12.48;7.32;;;1.80;94.10;;;;;;5056442;28;20493;-32
2022/03/21 00:59:46;;;;;;;10.88;6.75;;;1.90;92.80;;;;;;5060901;28;20123;-32
2022/03/21 01:02:12;;;;;;;12.70;5.85;;;2.00;92.30;;;;;;5055168;28;20039;-32
2022/03/21 01:04:39;;;;;;;12.40;6.97;;;2.10;91.80;;;;;;5054360;28;20020;-32
2022/03/21 01:07:05;;;;;;;12.15;7.15;;;2.10;92.10;;;;;;5054893;28;20036;-32
2022/03/21 01:09:30;;;;;;;14.32;7.75;;;2.10;93.00;;;;;;5056727;28;20016;-32
2022/03/21 01:11:56;;;;;;;10.10;6.55;;;1.90;93.00;;;;;;5058316;28;20044;-32
2022/03/21 01:14:22;;;;;;;9.20;6.15;;;2.00;92.90;;;;;;5058335;28;20191;-32
2022/03/21 01:16:50;;;;;;;10.60;7.45;;;1.90;92.00;;;;;;5054180;28;20094;-32
2022/03/21 01:19:15;;;;;;;9.45;6.05;;;2.00;91.60;;;;;;5055770;28;20032;-32
2022/03/21 01:21:41;;;;;;;9.98;6.65;;;2.00;92.60;;;;;;5060831;28;20082;-32
2022/03/21 01:24:07;;;;;;;14.05;7.88;;;1.90;91.90;;;;;;5056488;28;20029;-32
2022/03/21 01:26:32;;;;;;;11.23;6.47;;;2.00;91.50;;;;;;5059458;28;20474;-32
2022/03/21 01:28:58;;;;;;;11.02;7.35;;;2.10;90.80;;;;;;5060626;28;20036;-32
2022/03/21 01:31:24;;;;;;;10.05;7.22;;;2.10;90.70;;;;;;5060110;28;20047;-32
2022/03/21 01:33:49;;;;;;;10.15;6.57;;;2.10;90.90;;;;;;5059077;28;20067;-32
2022/03/21 01:36:15;;;;;;;13.45;6.95;;;2.20;90.40;;;;;;5056450;28;20039;-32
2022/03/21 01:38:41;;;;;;;10.05;6.32;;;2.20;91.00;;;;;;5052752;28;20067;-32
2022/03/21 01:41:06;;;;;;;13.75;6.70;;;2.10;90.20;;;;;;5055027;28;20048;-32
2022/03/21 01:43:32;;;;;;;11.18;7.10;;;2.10;90.70;;;;;;5058637;28;20033;-32
2022/03/21 01:45:58;;;;;;;10.07;6.78;;;2.10;90.40;;;;;;5054572;28;20052;-32
2022/03/21 01:48:24;;;;;;;13.30;6.88;;;2.00;91.80;;;;;;5055404;28;20048;-32
2022/03/21 01:50:50;;;;;;;13.50;8.32;;;2.00;91.10;;;;;;5057558;28;20112;-32
2022/03/21 01:56:00;;;;;;;12.35;7.25;;;2.00;91.50;;;;;;5058107;28;20035;-33
2022/03/21 01:58:25;;;;;;;11.63;6.22;;;2.00;91.40;;;;;;5061468;28;20021;-32
2022/03/21 02:00:52;;;;;;;13.27;6.28;;;2.00;91.10;;;;;;5064693;28;20485;-32
2022/03/21 02:03:22;;;;;;;14.25;7.75;;;1.90;90.90;;;;;;5056140;28;20025;-32
2022/03/21 02:05:47;;;;;;;13.40;7.72;;;1.80;91.10;;;;;;5058460;28;20039;-33
2022/03/21 02:08:14;;;;;;;12.23;7.20;;;1.80;90.60;;;;;;5060657;28;20052;-32
2022/03/21 02:10:44;;;;;;;13.38;7.40;;;1.80;90.60;;;;;;5058053;28;20041;-32
2022/03/21 02:13:10;;;;;;;12.73;7.25;;;1.70;90.90;;;;;;5056913;28;20485;-32
2022/03/21 02:15:36;;;;;;;11.60;7.57;;;1.60;91.90;;;;;;5058816;28;20023;-32
2022/03/21 02:18:03;;;;;;;18.38;8.35;;;1.40;92.50;;;;;;5057233;28;20381;-32
2022/03/21 02:20:32;;;;;;;11.27;7.55;;;1.40;92.70;;;;;;5055680;28;20067;-32
2022/03/21 02:23:09;;;;;;;14.88;8.10;;;1.20;94.50;;;;;;5057008;28;20040;-32
2022/03/21 02:25:39;;;;;;;12.65;7.97;;;1.00;94.90;;;;;;5057633;28;20034;-32
2022/03/21 02:28:12;;;;;;;14.20;7.55;;;1.10;94.40;;;;;;5059517;28;20097;-32
2022/03/21 02:30:44;;;;;;;11.13;6.28;;;1.20;93.90;;;;;;5058534;28;20032;-32
2022/03/21 02:33:11;;;;;;;13.50;7.03;;;1.30;94.80;;;;;;5056636;28;20410;-32
2022/03/21 02:35:41;;;;;;;10.32;7.53;;;1.30;94.20;;;;;;5058501;28;20029;-32
2022/03/21 02:38:08;;;;;;;11.93;7.72;;;1.20;95.90;;;;;;5057287;28;20047;-32
2022/03/21 02:40:34;;;;;;;14.27;7.35;;;1.20;94.20;;;;;;5053295;28;21016;-32
2022/03/21 02:43:00;;;;;;;12.32;8.15;;;1.20;94.00;;;;;;5054442;28;20040;-32
2022/03/21 02:45:25;;;;;;;14.93;7.38;;;1.20;95.50;;;;;;5061955;28;20028;-32
2022/03/21 02:47:51;;;;;;;11.35;7.30;;;1.00;96.80;;;;;;5054279;28;20092;-33
2022/03/21 02:50:37;;;;;;;11.15;7.28;;;0.90;97.70;;;;;;5057722;28;20051;-32
2022/03/21 02:53:04;;;;;;;11.80;7.00;;;0.90;96.00;;;;;;5055617;28;20373;-32
2022/03/21 02:55:30;;;;;;;9.25;6.10;;;1.00;95.10;;;;;;5051008;28;20029;-32
2022/03/21 02:57:55;;;;;;;9.48;6.00;;;0.80;97.00;;;;;;5057688;28;20386;-33
2022/03/21 03:00:21;;;;;;;6.93;5.15;;;0.40;98.70;;;;;;5059870;28;20036;-32
2022/03/21 03:02:47;;;;;;;19.45;5.60;;;-0.10;99.90;;;;;;5056561;28;20051;-32
2022/03/21 03:05:12;;;;;;;13.07;6.18;;;-0.50;99.90;;;;;;5055781;28;20064;-32
2022/03/21 03:07:38;;;;;;;13.73;7.35;;;-0.70;99.90;;;;;;5057897;28;20558;-32
2022/03/21 03:10:04;;;;;;;13.30;7.53;;;-0.80;99.90;;;;;;5058953;28;20028;-31
2022/03/21 03:12:30;;;;;;;12.68;6.07;;;-0.70;99.90;;;;;;5058735;28;20040;-32
2022/03/21 03:14:56;;;;;;;11.60;6.80;;;-0.50;99.90;;;;;;5062186;28;20031;-32
2022/03/21 03:17:22;;;;;;;19.00;7.35;;;-0.30;99.90;;;;;;5056284;28;20572;-32
2022/03/21 03:19:47;;;;;;;10.40;7.10;;;-0.20;99.90;;;;;;5055613;28;20045;-32
2022/03/21 03:22:15;;;;;;;12.13;6.60;;;-0.20;99.90;;;;;;5058593;28;20029;-32
2022/03/21 03:24:41;;;;;;;11.43;5.90;;;-0.50;99.90;;;;;;5058200;28;20030;-32
2022/03/21 03:27:07;;;;;;;9.63;6.45;;;-0.50;99.90;;;;;;5059464;28;20044;-32
2022/03/21 03:29:32;;;;;;;9.38;5.68;;;-0.40;99.90;;;;;;5058131;28;20098;-32
2022/03/21 03:32:00;;;;;;;14.52;6.20;;;-0.30;99.90;;;;;;5057833;28;20497;-32
2022/03/21 03:34:27;;;;;;;10.15;7.35;;;-0.20;99.90;;;;;;5054930;28;20039;-32
2022/03/21 03:36:52;;;;;;;9.25;7.13;;;-0.10;99.90;;;;;;5054872;28;20024;-33
2022/03/21 03:39:18;;;;;;;10.73;5.95;;;0.00;99.90;;;;;;5053434;28;20029;-32
2022/03/21 03:41:44;;;;;;;12.13;6.25;;;0.10;99.90;;;;;;5059318;28;20024;-32
2022/03/21 03:44:10;;;;;;;10.50;6.22;;;0.10;99.90;;;;;;5058197;28;20095;-32
2022/03/21 03:46:36;;;;;;;12.23;6.95;;;0.20;99.90;;;;;;5057204;28;20566;-32
2022/03/21 03:49:01;;;;;;;11.55;5.60;;;0.20;99.90;;;;;;5058664;28;20027;-33
2022/03/21 03:51:27;;;;;;;12.07;7.40;;;0.10;99.90;;;;;;5057890;28;20041;-32
2022/03/21 03:53:53;;;;;;;11.32;6.63;;;0.00;99.90;;;;;;5057177;28;20143;-32
2022/03/21 03:56:19;;;;;;;14.68;7.60;;;0.00;99.90;;;;;;5054979;28;20032;-32
2022/03/21 03:58:44;;;;;;;9.25;5.93;;;0.10;99.90;;;;;;5057148;28;20036;-32
2022/03/21 04:01:10;;;;;;;9.18;6.05;;;0.10;99.90;;;;;;5058612;27;20040;-32
2022/03/21 04:03:44;;;;;;;10.02;5.95;;;0.10;99.90;;;;;;5057455;28;20123;-32
2022/03/21 04:06:18;;;;;;;12.27;7.05;;;-0.30;99.90;;;;;;5059160;28;20047;-32
2022/03/21 04:08:45;;;;;;;10.25;6.38;;;-0.30;99.90;;;;;;5058755;28;20448;-33
2022/03/21 04:11:11;;;;;;;11.93;6.35;;;-0.40;99.90;;;;;;5052434;28;20036;-32
2022/03/21 04:13:37;;;;;;;8.00;5.20;;;-0.30;99.90;;;;;;5058768;28;20287;-32
2022/03/21 04:16:03;;;;;;;10.18;6.95;;;-0.40;99.90;;;;;;5049580;28;20064;-32
2022/03/21 04:18:29;;;;;;;11.48;5.88;;;-0.60;99.90;;;;;;5058792;28;20090;-33
2022/03/21 04:20:55;;;;;;;11.10;6.05;;;-0.60;99.90;;;;;;5055547;28;20032;-32
2022/03/21 04:23:20;;;;;;;13.25;7.00;;;-0.50;99.90;;;;;;5057599;28;20546;-32
2022/03/21 04:25:47;;;;;;;7.22;4.82;;;-0.40;99.90;;;;;;5060076;28;20032;-32
2022/03/21 04:28:17;;;;;;;12.48;6.47;;;-0.30;99.90;;;;;;5052456;28;20290;-32
2022/03/21 04:30:43;;;;;;;13.25;6.43;;;-0.30;99.90;;;;;;5057624;28;20051;-31
2022/03/21 04:33:10;;;;;;;10.13;6.10;;;-0.30;99.90;;;;;;5051327;28;20041;-32
2022/03/21 04:35:37;;;;;;;10.80;5.60;;;-0.20;99.90;;;;;;5056141;28;20036;-32
2022/03/21 04:38:03;;;;;;;9.27;6.03;;;-0.20;99.90;;;;;;5055462;28;20027;-32
2022/03/21 04:40:29;;;;;;;10.05;6.20;;;-0.20;99.90;;;;;;5056959;28;20024;-32
2022/03/21 04:42:55;;;;;;;12.95;6.28;;;-0.20;99.90;;;;;;5059354;28;20036;-32
2022/03/21 04:45:21;;;;;;;13.02;6.20;;;-0.30;99.90;;;;;;5055044;28;20537;-32
2022/03/21 04:47:47;;;;;;;12.63;6.85;;;-0.40;99.90;;;;;;5054539;28;20119;-32
2022/03/21 04:50:13;;;;;;;14.45;6.55;;;-0.40;99.90;;;;;;5060008;28;20029;-32
2022/03/21 04:52:39;;;;;;;9.25;5.40;;;-0.50;99.90;;;;;;5059190;28;20561;-32
2022/03/21 04:55:07;;;;;;;6.75;5.22;;;-0.60;99.90;;;;;;5057232;28;20029;-32
2022/03/21 04:57:34;;;;;;;14.50;6.35;;;-0.50;99.90;;;;;;5056007;28;20262;-33
2022/03/21 05:00:00;;;;;;;8.93;6.03;;;-0.50;99.90;;;;;;5062705;28;20113;-32
2022/03/21 05:02:25;;;;;;;9.45;6.45;;;-0.50;99.90;;;;;;5059282;28;20128;-32
2022/03/21 05:04:51;;;;;;;9.30;5.57;;;-0.50;99.90;;;;;;5055743;28;20036;-32
2022/03/21 05:07:17;;;;;;;12.00;6.07;;;-0.50;99.90;;;;;;5055193;28;20482;-32
2022/03/21 05:09:44;;;;;;;10.70;6.28;;;-0.50;99.90;;;;;;5053230;28;20029;-32
2022/03/21 05:12:10;;;;;;;12.25;7.13;;;-0.40;99.90;;;;;;5055624;28;20037;-32
2022/03/21 05:14:36;;;;;;;13.30;6.07;;;-0.40;99.90;;;;;;5057079;28;20052;-32
2022/03/21 05:17:02;;;;;;;10.10;6.07;;;-0.40;99.20;;;;;;5052215;28;20397;-32
2022/03/21 05:19:34;;;;;;;10.15;6.53;;;-0.40;99.40;;;;;;5052364;28;20049;-32
2022/03/21 05:22:06;;;;;;;9.80;5.57;;;-0.70;99.90;;;;;;5053418;28;20692;-32
2022/03/21 05:32:47;;;;;;;8.35;5.57;;;-0.90;99.90;;;;;;5058731;28;20106;-32
2022/03/21 05:37:57;;;;;;;10.88;6.97;;;-1.10;99.90;;;;;;5056669;28;20032;-32
2022/03/21 05:40:32;;;;;;;13.52;7.55;;;-1.00;99.90;;;;;;5057844;28;20450;-33
2022/03/21 05:42:57;;;;;;;11.70;7.10;;;-1.00;99.90;;;;;;5059396;28;20595;-33
2022/03/21 05:45:24;;;;;;;11.05;6.53;;;-1.10;99.90;;;;;;5060286;28;20145;-32
2022/03/21 05:50:35;;;;;;;11.68;6.50;;;-1.30;99.90;;;;;;5057850;28;20094;-32
2022/03/21 05:53:02;;;;;;;16.85;7.00;;;-1.20;99.90;;;;;;5064631;28;20040;-32
2022/03/21 05:55:29;;;;;;;11.02;7.00;;;-1.10;99.90;;;;;;5064700;28;20026;-32
2022/03/21 05:57:55;;;;;;;10.32;6.65;;;-1.00;99.90;;;;;;5059304;28;20606;-32
2022/03/21 06:00:21;;;;;;;14.95;6.03;;;-1.30;99.90;;;;;;5060236;28;20117;-32
2022/03/21 06:02:47;;;;;;;12.07;6.63;;;-1.30;99.90;;;;;;5061152;28;20044;-32
2022/03/21 06:05:13;;;;;;;9.48;5.45;;;-1.50;99.90;;;;;;5061770;28;20035;-32
2022/03/21 06:07:38;;;;;;;9.13;5.63;;;-1.50;99.90;;;;;;5062706;28;20040;-32
2022/03/21 06:10:05;;;;;;;10.70;6.20;;;-1.50;99.90;;;;;;5057886;28;20043;-32
2022/03/21 06:12:31;;;;;;;8.15;4.03;;;-1.40;99.90;;;;;;5057355;28;20036;-32
2022/03/21 06:14:57;;;;;;;7.88;5.80;;;-1.40;99.90;;;;;;5059467;28;20050;-32
2022/03/21 06:17:22;;;;;;;12.32;5.78;;;-1.30;99.90;;;;;;5057989;28;20783;-32
2022/03/21 06:19:48;;;;;;;10.52;5.40;;;-1.30;99.90;;;;;;5055364;28;20492;-33
2022/03/21 06:22:13;;;;;;;8.38;5.55;;;-1.50;99.90;;;;;;5062022;28;20032;-32
2022/03/21 06:24:39;;;;;;;9.80;5.60;;;-1.50;99.90;;;;;;5058512;28;20040;-32
2022/03/21 06:27:05;;;;;;;11.15;6.00;;;-1.30;99.90;;;;;;5059181;28;20401;-32
2022/03/21 06:29:31;;;;;;;10.30;6.45;;;-1.20;99.90;;;;;;5060129;28;20048;-32
2022/03/21 06:31:56;;;;;;;8.00;5.50;;;-1.00;99.90;;;;;;5058112;28;20033;-32
2022/03/21 06:34:22;;;;;;;9.40;5.15;;;-0.80;99.90;;;;;;5054406;28;20138;-32
2022/03/21 06:36:49;;;;;;;8.70;6.63;;;-0.80;99.90;;;;;;5062251;28;20456;-32
2022/03/21 06:39:14;;;;;;;11.48;7.10;;;-0.70;99.90;;;;;;5057585;28;20029;-33
2022/03/21 06:41:44;;;;;;;10.02;6.85;;;-0.60;99.90;;;;;;5055905;28;20031;-32
2022/03/21 06:44:10;;;;;;;7.30;5.10;;;-0.50;99.90;;;;;;5057429;28;20024;-31
2022/03/21 06:46:36;;;;;;;8.73;5.15;;;-0.60;99.90;;;;;;5060309;28;20500;-33
2022/03/21 06:49:02;;;;;;;7.65;6.28;;;-0.50;99.90;;;;;;5057671;28;20028;-32
2022/03/21 06:51:28;;;;;;;10.77;6.70;;;-0.40;99.90;;;;;;5055683;28;20051;-32
2022/03/21 06:53:53;;;;;;;12.40;7.32;;;-0.30;99.90;;;;;;5056147;28;20162;-32
2022/03/21 06:56:19;;;;;;;12.20;6.75;;;-0.30;99.90;;;;;;5056017;28;20036;-33
2022/03/21 06:58:44;;;;;;;12.98;7.22;;;-0.20;99.90;;;;;;5053230;28;20604;-32
2022/03/21 07:01:10;;;;;;;12.30;6.82;;;-0.10;99.90;;;;;;5055122;27;20051;-32
2022/03/21 07:03:36;;;;;;;15.93;6.65;;;-0.10;99.90;;;;;;5058567;28;20031;-32
2022/03/21 07:06:02;;;;;;;10.98;5.95;;;0.00;99.90;;;;;;5059774;28;20043;-32
2022/03/21 07:08:27;;;;;;;9.88;5.05;;;0.10;99.90;;;;;;5052671;28;20111;-32
2022/03/21 07:10:53;;;;;;;16.30;7.47;;;0.10;99.90;;;;;;5058571;28;20167;-32
2022/03/21 07:13:18;;;;;;;10.85;6.60;;;0.20;99.90;;;;;;5057525;28;20020;-32
2022/03/21 07:15:44;;;;;;;19.88;8.40;;;0.20;99.90;;;;;;5060111;28;20067;-32
2022/03/21 07:18:10;;;;;;;12.85;6.75;;;0.30;99.90;;;;;;5057248;28;20095;-32
2022/03/21 07:20:37;;;;;;;13.90;7.80;;;0.40;99.90;;;;;;5058935;28;20025;-32
2022/03/21 07:23:03;;;;;;;14.98;9.60;;;0.40;99.90;;;;;;5065528;28;20113;-32
2022/03/21 07:25:29;;;;;;;17.52;7.88;;;0.40;99.90;;;;;;5069413;28;20032;-32
2022/03/21 07:27:54;;;;;;;15.90;9.98;;;0.60;99.90;;;;;;5059680;28;20039;-32
2022/03/21 07:30:20;;;;;;;11.55;7.70;;;0.70;99.90;;;;;;5059051;28;20377;-32
2022/03/21 07:32:46;;;;;;;13.30;9.50;;;0.80;99.90;;;;;;5056395;27;20038;-32
2022/03/21 07:35:15;;;;;;;16.30;9.52;;;1.00;99.90;;;;;;5057649;28;20035;-32
2022/03/21 07:37:49;;;;;;;12.30;7.95;;;1.10;99.90;;;;;;5059556;28;20024;-32
2022/03/21 07:40:16;;;;;;;12.68;9.07;;;1.20;99.90;;;;;;5051127;28;20047;-32
2022/03/21 07:42:44;;;;;;;15.65;8.98;;;1.40;99.90;;;;;;5060891;28;20036;-32
2022/03/21 07:47:56;;;;;;;18.25;7.75;;;1.60;99.90;;;;;;5053113;28;22467;-32
2022/03/21 07:50:26;;;;;;;14.43;9.18;;;1.80;99.90;;;;;;5049402;28;20031;-33
2022/03/21 07:52:54;;;;;;;14.50;9.65;;;1.90;99.90;;;;;;5057707;28;20028;-32
2022/03/21 07:55:20;;;;;;;19.67;9.87;;;2.00;99.90;;;;;;5055515;28;22106;-32
2022/03/21 07:57:46;;;;;;;22.70;10.55;;;2.10;99.90;;;;;;5057163;28;20105;-32
2022/03/21 08:00:13;;;;;;;18.38;10.30;;;2.40;99.90;;;;;;5059320;28;20019;-32
2022/03/21 08:02:42;;;;;;;22.15;10.00;;;2.50;99.90;;;;;;5053822;28;20032;-32
2022/03/21 08:05:09;;;;;;;18.90;10.48;;;2.70;99.90;;;;;;5074001;28;20037;-32
2022/03/21 08:07:35;;;;;;;19.27;11.23;;;2.80;99.90;;;;;;5059265;28;20602;-32
2022/03/21 08:10:06;;;;;;;15.40;9.27;;;3.00;99.90;;;;;;5059800;28;20029;-33
2022/03/21 08:12:31;;;;;;;17.55;9.65;;;3.20;99.90;;;;;;5059160;28;20497;-32
2022/03/21 08:14:59;;;;;;;17.92;10.02;;;3.30;99.90;;;;;;5064363;28;20029;-32
2022/03/21 08:17:28;;;;;;;20.23;9.30;;;3.50;99.90;;;;;;5059274;28;20028;-32
2022/03/21 08:19:53;;;;;;;;;;;3.60;99.60;;;;;;5059153;28;20070;-32
2022/03/21 08:22:20;;;;;;;15.70;9.73;;;3.70;99.90;;;;;;5055055;28;20376;-32
2022/03/21 08:24:46;;;;;;;17.38;9.68;;;3.80;99.00;;;;;;5061485;28;20031;-32
2022/03/21 08:27:12;;;;;;;17.15;10.48;;;3.90;98.20;;;;;;5056270;28;20693;-32
2022/03/21 08:29:39;;;;;;;20.27;10.45;;;4.00;97.80;;;;;;5057464;28;20502;-32
2022/03/21 08:32:06;;;;;;;18.63;10.43;;;4.10;98.00;;;;;;5055661;28;20028;-33
2022/03/21 08:34:31;;;;;;;21.75;11.43;;;4.20;97.20;;;;;;5053260;28;20328;-34
2022/03/21 08:36:57;;;;;;;21.08;11.10;;;4.40;97.60;;;;;;5054182;28;20025;-32
2022/03/21 08:39:23;;;;;;;19.50;10.65;;;4.70;95.80;;;;;;5056888;28;20039;-33
2022/03/21 08:41:48;;;;;;;19.75;11.00;;;4.80;94.30;;;;;;5054912;28;20075;-32
2022/03/21 08:44:14;;;;;;;15.77;10.10;;;5.10;93.50;;;;;;5053139;28;20028;-32
2022/03/21 08:46:40;;;;;;;16.38;10.40;;;5.20;93.80;;;;;;5054814;28;20390;-33
2022/03/21 08:49:23;;;;;;;19.27;9.68;;;5.40;94.50;;;;;;5053877;28;20500;-32
2022/03/21 08:51:50;;;;;;;19.63;9.18;;;5.50;93.30;;;;;;5056663;28;20169;-32
2022/03/21 08:54:16;;;;;;;20.17;10.80;;;5.50;90.60;;;;;;5056901;28;20029;-32
2022/03/21 08:56:41;;;;;;;15.88;9.80;;;5.50;90.40;;;;;;5061373;28;20028;-32
2022/03/21 08:59:07;;;;;;;17.15;9.48;;;5.70;88.50;;;;;;5057277;28;20561;-32
2022/03/21 09:01:33;;;;;;;17.98;10.77;;;5.80;86.10;;;;;;5057716;28;20044;-32
2022/03/21 09:04:01;;;;;;;15.02;10.35;;;6.10;83.30;;;;;;5061742;28;20051;-32
2022/03/21 09:06:27;;;;;;;16.08;9.50;;;6.30;81.20;;;;;;5060148;28;20457;-33
2022/03/21 09:08:53;;;;;;;16.05;11.68;;;6.60;79.60;;;;;;5061430;28;20037;-32
2022/03/21 09:11:19;;;;;;;13.80;8.93;;;6.70;76.80;;;;;;5059383;28;20108;-32
2022/03/21 09:13:46;;;;;;;22.10;10.13;;;6.80;74.10;;;;;;5064028;28;20401;-32
2022/03/21 09:16:12;;;;;;;20.35;9.90;;;6.90;64.10;;;;;;5060920;28;20477;-32
2022/03/21 09:18:39;;;;;;;16.10;10.05;;;7.20;74.60;;;;;;5062050;28;20048;-32
2022/03/21 09:21:05;;;;;;;18.95;9.30;;;7.30;58.40;;;;;;5057559;28;20043;-33
2022/03/21 09:23:30;;;;;;;15.25;8.93;;;7.30;58.60;;;;;;5061715;28;20033;-33
2022/03/21 09:25:56;;;;;;;14.13;8.52;;;7.20;58.90;;;;;;5060469;28;20032;-32
2022/03/21 09:28:22;;;;;;;17.65;9.82;;;7.40;57.90;;;;;;5057298;28;20650;-32
2022/03/21 09:30:48;;;;;;;16.75;9.52;;;7.50;57.50;;;;;;5060410;28;20127;-32
2022/03/21 09:33:15;;;;;;;14.05;8.98;;;7.60;55.70;;;;;;5058609;28;20044;-32
2022/03/21 09:35:43;;;;;;;15.18;9.63;;;7.80;54.20;;;;;;5060776;28;20035;-32
2022/03/21 09:38:10;;;;;;;16.45;9.18;;;7.80;53.80;;;;;;5062400;28;20567;-33
2022/03/21 09:40:36;;;;;;;14.38;8.88;;;7.80;55.00;;;;;;5062945;28;20071;-33
2022/03/21 09:43:01;;;;;;;16.35;8.75;;;8.00;55.30;;;;;;5065867;28;20094;-32
2022/03/21 09:45:28;;;;;;;17.77;10.35;;;8.30;54.20;;;;;;5063125;28;20036;-32
2022/03/21 09:48:11;;;;;;;16.60;9.55;;;8.40;52.50;;;;;;5064804;28;20025;-32
2022/03/21 09:50:40;;;;;;;16.25;8.88;;;8.40;52.50;;;;;;5064194;28;20032;-32
2022/03/21 09:53:07;;;;;;;14.82;9.05;;;8.40;50.20;;;;;;5065651;28;20055;-32
2022/03/21 09:55:33;;;;;;;17.65;10.10;;;8.30;52.30;;;;;;5058633;28;20109;-32
2022/03/21 09:57:59;;;;;;;16.33;9.45;;;8.40;50.50;;;;;;5063481;28;20481;-32
2022/03/21 10:00:27;;;;;;;18.65;10.63;;;8.40;50.00;;;;;;5056981;28;20040;-32
2022/03/21 10:02:54;;;;;;;14.70;9.18;;;8.50;52.60;;;;;;5061748;28;20043;-32
2022/03/21 10:05:42;;;;;;;14.18;9.00;;;8.70;51.80;;;;;;5060870;28;20374;-32
2022/03/21 10:08:20;;;;;;;17.52;10.07;;;8.80;49.70;;;;;;5060545;28;20024;-32
2022/03/21 10:11:06;;;;;;;17.40;9.30;;;8.80;51.10;;;;;;5060846;28;20025;-32
2022/03/21 10:13:36;;;;;;;15.98;10.63;;;9.00;50.70;;;;;;5059402;28;20550;-33
2022/03/21 10:16:15;;;;;;;18.38;9.93;;;9.00;49.80;;;;;;5061079;28;20031;-32
2022/03/21 10:19:01;;;;;;;16.80;9.82;;;9.10;50.10;;;;;;5056345;28;20040;-32
2022/03/21 10:21:29;;;;;;;17.15;10.50;;;9.40;52.50;;;;;;5060738;28;20035;-33
2022/03/21 10:24:07;;;;;;;15.57;9.48;;;9.70;51.60;;;;;;5057139;28;20025;-32
2022/03/21 10:26:40;;;;;;;17.63;9.50;;;9.70;52.20;;;;;;5059316;28;20505;-32
2022/03/21 10:29:10;;;;;;;17.00;9.15;;;9.80;49.80;;;;;;5062084;28;20097;-32
2022/03/21 10:31:51;;;;;;;20.48;10.48;;;9.80;52.40;;;;;;5061432;28;20393;-32
2022/03/21 10:34:20;;;;;;;16.13;8.63;;;10.10;53.30;;;;;;5058547;28;20029;-32
2022/03/21 10:36:58;;;;;;;13.77;8.55;;;10.20;53.10;;;;;;5060511;28;20040;-32
2022/03/21 10:39:24;;;;;;;13.68;8.25;;;10.30;51.10;;;;;;5058156;28;20036;-32
2022/03/21 10:42:05;;;;;;;18.20;9.55;;;10.20;49.80;;;;;;5060679;28;20040;-32
2022/03/21 10:44:32;;;;;;;16.50;9.40;;;10.30;50.10;;;;;;5057864;28;20717;-32
2022/03/21 10:47:03;;;;;;;16.15;9.05;;;10.50;52.00;;;;;;5057844;28;20543;-32
2022/03/21 10:49:38;;;;;;;15.32;9.05;;;10.30;47.10;;;;;;5056912;28;20111;-32
2022/03/21 10:52:05;;;;;;;13.43;8.68;;;10.30;48.50;;;;;;5058933;28;20067;-32
2022/03/21 10:54:50;;;;;;;11.00;7.93;;;10.30;49.60;;;;;;5057297;28;20048;-32
2022/03/21 10:57:27;;;;;;;14.93;9.38;;;10.40;47.20;;;;;;5055355;28;20060;-32
2022/03/21 11:00:20;;;;;;;14.23;8.52;;;10.50;47.60;;;;;;5054756;28;20662;-32
2022/03/21 11:02:57;;;;;;;13.15;8.43;;;10.60;47.60;;;;;;5053795;28;20048;-32
2022/03/21 11:05:26;;;;;;;14.13;8.80;;;10.50;46.00;;;;;;5057662;28;20453;-32
2022/03/21 11:07:53;;;;;;;15.07;8.90;;;10.60;47.60;;;;;;5056518;28;20067;-32
2022/03/21 11:10:20;;;;;;;17.00;9.10;;;10.70;47.20;;;;;;5058391;28;20131;-32
2022/03/21 11:12:46;;;;;;;18.77;9.50;;;10.70;46.60;;;;;;5059268;28;20833;-32
2022/03/21 11:15:13;;;;;;;15.23;9.77;;;10.70;45.00;;;;;;5060899;28;20036;-33
2022/03/21 11:17:40;;;;;;;13.18;8.00;;;10.90;47.30;;;;;;5053775;28;20453;-32
2022/03/21 11:20:06;;;;;;;13.60;8.15;;;11.00;46.20;;;;;;5052609;28;20034;-32
2022/03/21 11:22:36;;;;;;;13.95;8.90;;;11.10;47.90;;;;;;5058282;28;20751;-33
2022/03/21 11:25:13;;;;;;;15.73;9.80;;;11.30;48.60;;;;;;5060651;28;20036;-33
2022/03/21 11:27:53;;;;;;;13.38;8.60;;;11.20;44.90;;;;;;5062027;28;20044;-32
2022/03/21 11:30:31;;;;;;;13.38;8.48;;;11.20;46.00;;;;;;5057532;28;20601;-32
2022/03/21 11:33:22;;;;;;;12.75;8.25;;;11.30;44.00;;;;;;5056789;28;20067;-32
2022/03/21 11:36:00;;;;;;;14.52;8.55;;;11.40;43.30;;;;;;5057237;28;20059;-32
2022/03/21 11:38:31;;;;;;;13.23;8.48;;;11.30;48.00;;;;;;5056335;28;20031;-32
2022/03/21 11:41:23;;;;;;;12.85;8.30;;;11.40;43.90;;;;;;5056747;28;20413;-33
2022/03/21 11:44:04;;;;;;;12.90;8.90;;;11.30;43.00;;;;;;5051009;28;20561;-32
2022/03/21 11:46:48;;;;;;;13.02;8.07;;;11.20;44.00;;;;;;5056249;28;20028;-32
2022/03/21 11:49:16;;;;;;;12.32;7.78;;;11.30;44.50;;;;;;5056950;28;20529;-32
2022/03/21 11:51:43;;;;;;;12.77;8.38;;;11.30;43.70;;;;;;5056806;28;20032;-32
2022/03/21 11:54:44;;;;;;;13.60;8.55;;;11.30;43.00;;;;;;5057694;28;20490;-32
2022/03/21 11:57:16;;;;;;;15.48;9.30;;;11.40;43.20;;;;;;4996670;28;20204;-33
2022/03/21 11:59:41;;;;;;;13.57;9.07;;;11.70;47.80;;;;;;5046962;28;20040;-32
2022/03/21 12:02:10;;;;;;;14.80;9.20;;;11.80;43.60;;;;;;5058556;28;20055;-33
2022/03/21 12:04:37;;;;;;;11.77;8.38;;;11.70;42.50;;;;;;5051002;28;20060;-32
2022/03/21 12:07:12;;;;;;;12.68;8.43;;;11.60;41.70;;;;;;5056582;28;20077;-33
2022/03/21 12:09:58;;;;;;;12.23;8.25;;;11.60;42.80;;;;;;5055632;28;20546;-32
2022/03/21 12:12:51;;;;;;;13.77;8.75;;;11.70;43.50;;;;;;5054775;28;20044;-32
2022/03/21 12:15:31;;;;;;;18.17;9.68;;;11.90;44.40;;;;;;5052109;28;20096;-32
2022/03/21 12:17:57;;;;;;;13.18;8.00;;;12.00;48.60;;;;;;5049676;28;20032;-32
2022/03/21 12:20:23;;;;;;;15.25;8.70;;;12.10;44.80;;;;;;5051636;28;20032;-33
2022/03/21 12:22:49;;;;;;;13.80;9.13;;;12.20;45.00;;;;;;5053020;28;20505;-32
2022/03/21 12:25:46;;;;;;;16.55;8.95;;;12.10;42.00;;;;;;5053914;28;20033;-32
2022/03/21 12:31:32;;;;;;;14.88;8.65;;;12.10;44.20;;;;;;5048793;28;20137;-32
2022/03/21 12:34:50;;;;;;;13.45;8.43;;;12.20;42.40;;;;;;5054245;28;20035;-32
2022/03/21 12:37:36;;;;;;;14.02;8.40;;;12.10;43.30;;;;;;5038400;28;20044;-32
2022/03/21 12:40:07;;;;;;;22.25;10.55;;;12.30;45.50;;;;;;5053536;28;21944;-33
2022/03/21 12:42:34;;;;;;;14.90;8.38;;;12.40;43.90;;;;;;5058528;28;20036;-32
2022/03/21 12:44:59;;;;;;;21.23;9.85;;;12.40;44.00;;;;;;5056720;28;20036;-32
2022/03/21 12:47:25;;;;;;;21.02;9.82;;;12.20;43.90;;;;;;5056820;28;20020;-32
2022/03/21 12:49:52;;;;;;;18.00;9.32;;;12.30;42.80;;;;;;5056417;28;20036;-32
2022/03/21 12:52:29;;;;;;;13.35;8.80;;;12.20;44.20;;;;;;5051631;28;20201;-32
2022/03/21 12:54:57;;;;;;;16.63;9.05;;;12.30;42.80;;;;;;5055111;28;20148;-33
2022/03/21 12:57:23;;;;;;;13.70;8.43;;;12.40;42.90;;;;;;5057209;28;20445;-33
2022/03/21 12:59:49;;;;;;;17.52;9.00;;;12.30;42.20;;;;;;5055113;28;20409;-33
2022/03/21 13:02:27;;;;;;;27.90;9.95;;;12.30;42.60;;;;;;5053938;28;20044;-33
2022/03/21 13:10:33;;;;;;;13.60;7.85;;;12.50;44.80;;;;;;5055373;28;20485;-33
2022/03/21 13:13:00;;;;;;;35.97;10.20;;;12.70;44.60;;;;;;5055049;28;20028;-32
2022/03/21 13:15:28;;;;;;;13.82;8.43;;;12.60;41.20;;;;;;5055549;28;20037;-33
2022/03/21 13:18:01;;;;;;;14.60;8.70;;;12.50;42.00;;;;;;5052949;28;20387;-32